createdAt,value
2022-12-29T00:00:14.260Z,6.35
2022-12-29T00:03:02.101Z,6.36
2022-12-29T00:05:29.604Z,6.40
2022-12-29T00:07:57.179Z,6.30
2022-12-29T00:10:24.505Z,6.22
2022-12-29T00:13:10.536Z,6.07
2022-12-29T00:15:37.994Z,6.13
2022-12-29T00:18:06.619Z,6.19
2022-12-29T00:20:54.849Z,6.28
2022-12-29T00:23:41.580Z,6.18
2022-12-29T00:26:33.995Z,5.99
2022-12-29T00:29:20.337Z,6.09
2022-12-29T00:32:07.864Z,6.10
2022-12-29T00:34:54.018Z,6.00
2022-12-29T00:37:41.400Z,6.10
2022-12-29T00:40:27.938Z,6.00
2022-12-29T00:43:13.755Z,5.93
2022-12-29T00:45:42.772Z,6.04
2022-12-29T00:48:11.836Z,5.89
2022-12-29T00:50:39.453Z,5.98
2022-12-29T00:53:06.748Z,5.96
2022-12-29T00:55:39.008Z,6.03
2022-12-29T00:58:06.467Z,6.23
2022-12-29T01:00:34.806Z,6.11
2022-12-29T01:03:02.620Z,6.25
2022-12-29T01:05:30.281Z,6.06
2022-12-29T01:07:57.671Z,5.92
2022-12-29T01:10:25.352Z,6.08
2022-12-29T01:12:53.873Z,5.89
2022-12-29T01:15:21.734Z,5.73
2022-12-29T01:17:49.730Z,5.86
2022-12-29T01:20:17.431Z,5.80
2022-12-29T01:22:45.620Z,5.91
2022-12-29T01:25:13.216Z,5.91
2022-12-29T01:27:41.594Z,5.89
2022-12-29T01:30:09.788Z,5.89
2022-12-29T01:32:37.051Z,6.01
2022-12-29T01:35:05.040Z,5.85
2022-12-29T01:37:36.649Z,5.89
2022-12-29T01:40:04.611Z,5.80
2022-12-29T01:42:33.159Z,5.59
2022-12-29T01:45:09.548Z,5.60
2022-12-29T01:47:42.455Z,5.61
2022-12-29T01:50:17.115Z,5.77
2022-12-29T01:52:56.954Z,5.97
2022-12-29T01:55:27.071Z,6.07
2022-12-29T01:57:57.768Z,5.98
2022-12-29T02:00:25.412Z,5.90
2022-12-29T02:02:54.752Z,6.04
2022-12-29T02:05:26.088Z,6.05
2022-12-29T02:07:54.219Z,6.05
2022-12-29T02:10:23.351Z,5.98
2022-12-29T02:12:50.923Z,6.07
2022-12-29T02:15:20.116Z,6.00
2022-12-29T02:18:01.771Z,5.72
2022-12-29T02:20:59.783Z,5.93
2022-12-29T02:23:54.883Z,5.68
2022-12-29T02:26:40.670Z,5.67
2022-12-29T02:29:45.527Z,5.74
2022-12-29T02:32:45.473Z,5.50
2022-12-29T02:35:43.160Z,5.50
2022-12-29T02:38:32.355Z,5.32
2022-12-29T02:41:09.886Z,5.29
2022-12-29T02:44:05.031Z,5.30
2022-12-29T02:46:56.760Z,5.24
2022-12-29T02:49:28.814Z,5.20
2022-12-29T02:52:11.206Z,5.48
2022-12-29T02:54:42.263Z,5.52
2022-12-29T02:57:28.688Z,5.43
2022-12-29T03:00:02.642Z,5.16
2022-12-29T03:02:45.627Z,5.18
2022-12-29T03:05:40.043Z,5.36
2022-12-29T03:08:46.397Z,5.39
2022-12-29T03:11:34.557Z,5.37
2022-12-29T03:14:53.051Z,4.97
2022-12-29T03:17:54.614Z,4.91
2022-12-29T03:20:27.860Z,5.08
2022-12-29T03:23:01.797Z,5.03
2022-12-29T03:25:36.566Z,4.89
2022-12-29T03:28:22.142Z,4.82
2022-12-29T03:30:49.745Z,4.77
2022-12-29T03:33:26.449Z,4.89
2022-12-29T03:36:00.780Z,4.94
2022-12-29T03:38:47.064Z,5.01
2022-12-29T03:41:19.851Z,4.92
2022-12-29T03:43:48.483Z,5.22
2022-12-29T03:46:15.843Z,5.20
2022-12-29T03:48:43.659Z,4.97
2022-12-29T03:51:11.224Z,5.03
2022-12-29T03:53:38.911Z,4.89
2022-12-29T03:56:06.444Z,4.92
2022-12-29T03:58:34.835Z,5.06
2022-12-29T04:01:08.453Z,5.23
2022-12-29T04:03:39.692Z,5.08
2022-12-29T04:06:08.665Z,5.15
2022-12-29T04:08:45.622Z,4.98
2022-12-29T04:11:12.909Z,5.09
2022-12-29T04:13:42.052Z,5.03
2022-12-29T04:16:11.652Z,5.25
2022-12-29T04:18:39.248Z,5.14
2022-12-29T04:21:07.613Z,5.39
2022-12-29T04:23:38.721Z,4.93
2022-12-29T04:26:10.139Z,5.12
2022-12-29T04:28:56.503Z,5.18
2022-12-29T04:31:35.268Z,5.16
2022-12-29T04:34:03.171Z,5.39
2022-12-29T04:36:30.801Z,5.20
2022-12-29T04:38:58.616Z,5.39
2022-12-29T04:41:26.480Z,5.20
2022-12-29T04:43:54.891Z,5.22
2022-12-29T04:46:42.478Z,5.34
2022-12-29T04:49:23.243Z,5.15
2022-12-29T04:52:00.865Z,5.38
2022-12-29T04:54:28.853Z,5.46
2022-12-29T04:57:06.571Z,5.66
2022-12-29T04:59:35.216Z,5.64
2022-12-29T05:02:02.625Z,5.73
2022-12-29T05:04:30.467Z,5.85
2022-12-29T05:06:57.885Z,5.85
2022-12-29T05:09:25.511Z,5.70
2022-12-29T05:11:52.855Z,5.71
2022-12-29T05:14:20.487Z,5.66
2022-12-29T05:16:47.890Z,5.67
2022-12-29T05:19:15.554Z,5.68
2022-12-29T05:21:42.876Z,5.73
2022-12-29T05:24:10.877Z,5.82
2022-12-29T05:26:38.261Z,5.70
2022-12-29T05:29:26.059Z,5.45
2022-12-29T05:31:54.181Z,5.56
2022-12-29T05:34:22.413Z,5.86
2022-12-29T05:36:49.769Z,5.70
2022-12-29T05:39:17.535Z,5.80
2022-12-29T05:41:49.256Z,5.66
2022-12-29T05:44:16.953Z,5.76
2022-12-29T05:47:05.811Z,5.71
2022-12-29T05:49:41.875Z,5.71
2022-12-29T05:52:29.570Z,5.69
2022-12-29T05:54:57.250Z,5.77
2022-12-29T05:57:26.423Z,5.88
2022-12-29T06:00:08.635Z,5.82
2022-12-29T06:02:42.936Z,5.66
2022-12-29T06:05:10.930Z,5.82
2022-12-29T06:07:40.016Z,5.79
2022-12-29T06:10:08.191Z,5.72
2022-12-29T06:12:48.528Z,5.57
2022-12-29T06:15:17.505Z,5.57
2022-12-29T06:17:45.820Z,5.46
2022-12-29T06:20:13.493Z,5.63
2022-12-29T06:22:41.511Z,5.70
2022-12-29T06:25:09.743Z,5.76
2022-12-29T06:27:37.406Z,5.56
2022-12-29T06:30:06.903Z,5.60
2022-12-29T06:32:34.421Z,5.85
2022-12-29T06:35:07.080Z,5.80
2022-12-29T06:37:38.996Z,5.68
2022-12-29T06:40:07.079Z,5.75
2022-12-29T06:42:50.514Z,5.70
2022-12-29T06:45:35.670Z,5.86
2022-12-29T06:48:03.021Z,5.73
2022-12-29T06:50:30.660Z,5.79
2022-12-29T06:52:57.905Z,5.54
2022-12-29T06:55:25.505Z,5.75
2022-12-29T06:57:56.297Z,5.91
2022-12-29T07:00:24.926Z,5.63
2022-12-29T07:02:52.783Z,5.67
2022-12-29T07:05:20.464Z,5.86
2022-12-29T07:07:47.750Z,6.07
2022-12-29T07:10:15.389Z,5.88
2022-12-29T07:12:42.794Z,5.90
2022-12-29T07:15:10.771Z,5.86
2022-12-29T07:17:38.071Z,5.88
2022-12-29T07:20:06.683Z,6.00
2022-12-29T07:22:34.082Z,5.96
2022-12-29T07:25:01.845Z,5.88
2022-12-29T07:27:29.329Z,5.74
2022-12-29T07:29:56.969Z,6.03
2022-12-29T07:32:24.305Z,6.08
2022-12-29T07:34:51.910Z,6.09
2022-12-29T07:37:19.602Z,6.20
2022-12-29T07:39:47.154Z,6.19
2022-12-29T07:42:14.574Z,6.36
2022-12-29T07:44:44.645Z,6.44
2022-12-29T07:47:38.276Z,6.37
2022-12-29T07:50:06.534Z,6.32
2022-12-29T07:52:33.810Z,6.33
2022-12-29T07:55:01.363Z,6.34
2022-12-29T07:57:32.067Z,6.44
2022-12-29T08:00:00.045Z,6.25
2022-12-29T08:02:27.908Z,6.23
2022-12-29T08:04:55.678Z,6.48
2022-12-29T08:07:22.928Z,6.29
2022-12-29T08:09:50.739Z,6.48
2022-12-29T08:12:18.788Z,6.62
2022-12-29T08:14:46.316Z,6.42
2022-12-29T08:17:13.613Z,6.36
2022-12-29T08:19:42.405Z,6.29
2022-12-29T08:22:09.697Z,6.49
2022-12-29T08:24:37.311Z,6.45
2022-12-29T08:27:12.051Z,6.47
2022-12-29T08:29:43.664Z,6.48
2022-12-29T08:32:11.313Z,6.45
2022-12-29T08:34:39.024Z,6.17
2022-12-29T08:37:06.287Z,6.19
2022-12-29T08:39:33.881Z,6.37
2022-12-29T08:42:01.285Z,6.59
2022-12-29T08:44:28.894Z,6.66
2022-12-29T08:46:56.223Z,6.35
2022-12-29T08:49:23.843Z,6.41
2022-12-29T08:51:51.484Z,6.48
2022-12-29T08:54:19.276Z,6.41
2022-12-29T08:56:46.665Z,6.58
2022-12-29T08:59:16.128Z,6.74
2022-12-29T09:01:44.815Z,6.82
2022-12-29T09:04:16.209Z,6.74
2022-12-29T09:06:46.132Z,6.56
2022-12-29T09:09:14.298Z,6.61
2022-12-29T09:11:42.830Z,6.68
2022-12-29T09:14:10.430Z,6.71
2022-12-29T09:16:38.360Z,6.90
2022-12-29T09:19:06.421Z,6.86
2022-12-29T09:21:33.690Z,6.93
2022-12-29T09:24:01.265Z,6.87
2022-12-29T09:26:28.513Z,7.04
2022-12-29T09:28:56.041Z,7.08
2022-12-29T09:31:23.584Z,7.14
2022-12-29T09:33:51.229Z,7.17
2022-12-29T09:36:18.587Z,7.24
2022-12-29T09:38:46.116Z,7.44
2022-12-29T09:41:44.583Z,7.47
2022-12-29T09:44:21.230Z,7.41
2022-12-29T09:46:54.378Z,7.10
2022-12-29T09:49:33.282Z,7.25
2022-12-29T09:52:15.197Z,7.15
2022-12-29T09:54:55.133Z,7.44
2022-12-29T09:58:02.552Z,7.38
2022-12-29T10:00:42.661Z,7.43
2022-12-29T10:03:21.888Z,7.54
2022-12-29T10:05:58.486Z,7.62
2022-12-29T10:08:43.233Z,7.72
2022-12-29T10:11:35.494Z,7.61
2022-12-29T10:14:39.812Z,7.83
2022-12-29T10:17:29.162Z,7.66
2022-12-29T10:20:27.544Z,7.82
2022-12-29T10:23:37.217Z,7.71
2022-12-29T10:26:08.904Z,7.92
2022-12-29T10:28:43.433Z,8.14
2022-12-29T10:31:22.135Z,8.17
2022-12-29T10:34:00.259Z,8.30
2022-12-29T10:36:36.839Z,8.40
2022-12-29T10:39:07.180Z,8.67
2022-12-29T10:42:02.677Z,8.66
2022-12-29T10:44:32.509Z,8.09
2022-12-29T10:47:05.895Z,8.13
2022-12-29T10:49:40.323Z,8.21
2022-12-29T10:52:09.814Z,8.30
2022-12-29T10:54:57.259Z,8.55
2022-12-29T10:57:35.311Z,8.29
2022-12-29T11:00:13.418Z,8.39
2022-12-29T11:02:59.642Z,8.56
2022-12-29T11:05:35.934Z,8.17
2022-12-29T11:08:09.708Z,8.15
2022-12-29T11:10:43.800Z,8.21
2022-12-29T11:13:26.760Z,7.99
2022-12-29T11:15:54.339Z,8.09
2022-12-29T11:18:34.973Z,8.28
2022-12-29T11:21:05.407Z,8.17
2022-12-29T11:23:41.157Z,8.19
2022-12-29T11:26:11.407Z,8.36
2022-12-29T11:28:40.172Z,8.45
2022-12-29T11:31:09.730Z,8.54
2022-12-29T11:33:39.500Z,8.61
2022-12-29T11:36:12.692Z,8.50
2022-12-29T11:38:43.155Z,8.57
2022-12-29T11:41:21.062Z,8.40
2022-12-29T11:43:48.705Z,8.37
2022-12-29T11:46:20.631Z,8.48
2022-12-29T11:48:49.157Z,8.43
2022-12-29T11:51:30.379Z,8.42
2022-12-29T11:54:00.789Z,8.37
2022-12-29T11:56:42.320Z,8.33
2022-12-29T11:59:28.043Z,8.19
2022-12-29T12:01:57.534Z,8.28
2022-12-29T12:04:30.199Z,8.15
2022-12-29T12:07:13.585Z,8.24
2022-12-29T12:10:04.835Z,8.30
2022-12-29T12:12:44.761Z,8.36
2022-12-29T12:15:22.137Z,8.37
2022-12-29T12:18:04.818Z,8.34
2022-12-29T12:21:10.821Z,8.32
2022-12-29T12:23:47.408Z,8.28
2022-12-29T12:26:29.607Z,8.25
2022-12-29T12:29:12.456Z,8.12
2022-12-29T12:31:50.625Z,8.21
2022-12-29T12:34:31.823Z,8.15
2022-12-29T12:36:59.090Z,8.31
2022-12-29T12:39:32.436Z,8.14
2022-12-29T12:42:40.357Z,8.30
2022-12-29T12:45:45.868Z,8.40
2022-12-29T12:48:34.520Z,8.32
2022-12-29T12:51:37.365Z,8.21
2022-12-29T12:54:25.409Z,8.20
2022-12-29T12:57:20.066Z,7.95
2022-12-29T13:00:02.395Z,7.88
2022-12-29T13:02:49.712Z,7.93
2022-12-29T13:05:38.987Z,8.18
2022-12-29T13:08:37.445Z,8.20
2022-12-29T13:11:35.010Z,8.27
2022-12-29T13:14:20.570Z,8.30
2022-12-29T13:17:20.263Z,8.19
2022-12-29T13:20:21.321Z,8.29
2022-12-29T13:23:04.029Z,8.18
2022-12-29T13:25:53.107Z,8.30
2022-12-29T13:29:28.295Z,8.35
2022-12-29T13:32:25.984Z,8.23
2022-12-29T13:35:02.468Z,8.21
2022-12-29T13:37:34.607Z,8.03
2022-12-29T13:40:14.830Z,8.23
2022-12-29T13:42:44.180Z,8.28
2022-12-29T13:45:17.728Z,8.25
2022-12-29T13:48:03.622Z,8.17
2022-12-29T13:50:36.178Z,8.11
2022-12-29T13:53:37.982Z,8.12
2022-12-29T13:56:21.726Z,8.07
2022-12-29T13:58:57.441Z,7.94
2022-12-29T14:01:34.143Z,8.00
2022-12-29T14:04:10.634Z,7.98
2022-12-29T14:06:41.603Z,8.02
2022-12-29T14:09:43.744Z,8.04
2022-12-29T14:12:34.577Z,7.89
2022-12-29T14:15:22.053Z,7.85
2022-12-29T14:18:13.289Z,7.80
2022-12-29T14:20:58.433Z,7.65
2022-12-29T14:23:46.743Z,7.80
2022-12-29T14:26:32.579Z,7.68
2022-12-29T14:29:40.699Z,7.72
2022-12-29T14:32:26.561Z,7.56
2022-12-29T14:34:58.211Z,7.47
2022-12-29T14:37:28.787Z,7.30
2022-12-29T14:40:20.694Z,7.26
2022-12-29T14:42:49.009Z,7.35
2022-12-29T14:45:16.169Z,7.44
2022-12-29T14:47:48.701Z,7.36
2022-12-29T14:50:17.808Z,7.40
2022-12-29T14:52:50.315Z,7.43
2022-12-29T14:55:17.936Z,7.52
2022-12-29T14:57:50.793Z,7.36
2022-12-29T15:00:30.728Z,7.34
2022-12-29T15:03:08.956Z,7.14
2022-12-29T15:05:44.900Z,7.23
2022-12-29T15:08:17.122Z,7.25
2022-12-29T15:10:48.928Z,7.39
2022-12-29T15:13:24.568Z,7.24
2022-12-29T15:15:53.932Z,7.23
2022-12-29T15:18:31.110Z,7.24
2022-12-29T15:21:01.323Z,7.22
2022-12-29T15:23:31.620Z,7.27
2022-12-29T15:26:05.024Z,7.12
2022-12-29T15:28:58.696Z,7.17
2022-12-29T15:31:30.465Z,7.12
2022-12-29T15:34:13.176Z,7.27
2022-12-29T15:36:42.402Z,7.32
2022-12-29T15:39:30.084Z,7.34
2022-12-29T15:42:10.885Z,7.37
2022-12-29T15:44:44.279Z,7.34
2022-12-29T15:47:21.983Z,7.57
2022-12-29T15:49:52.040Z,7.55
2022-12-29T15:52:22.110Z,7.60
2022-12-29T15:54:51.770Z,7.73
2022-12-29T15:57:27.890Z,7.68
2022-12-29T15:59:55.921Z,7.78
2022-12-29T16:02:25.078Z,7.73
2022-12-29T16:05:16.718Z,7.76
2022-12-29T16:07:54.095Z,7.72
2022-12-29T16:10:41.250Z,7.51
2022-12-29T16:13:33.146Z,7.50
2022-12-29T16:16:16.921Z,7.61
2022-12-29T16:18:45.681Z,7.76
2022-12-29T16:21:23.447Z,7.82
2022-12-29T16:23:54.066Z,7.89
2022-12-29T16:26:24.399Z,7.87
2022-12-29T16:28:59.490Z,7.81
2022-12-29T16:31:33.140Z,7.92
2022-12-29T16:34:22.521Z,7.99
2022-12-29T16:37:05.229Z,8.12
2022-12-29T16:39:40.651Z,8.19
2022-12-29T16:42:37.659Z,8.17
2022-12-29T16:45:49.221Z,8.05
2022-12-29T16:48:21.081Z,8.19
2022-12-29T16:50:49.976Z,8.21
2022-12-29T16:53:30.577Z,8.33
2022-12-29T16:56:02.948Z,8.44
2022-12-29T16:58:32.808Z,8.50
2022-12-29T17:01:01.972Z,8.53
2022-12-29T17:03:38.708Z,8.62
2022-12-29T17:06:06.603Z,8.66
2022-12-29T17:08:44.728Z,8.64
2022-12-29T17:11:55.610Z,8.66
2022-12-29T17:14:47.917Z,8.69
2022-12-29T17:17:18.914Z,8.66
2022-12-29T17:19:51.077Z,8.53
2022-12-29T17:22:28.428Z,8.51
2022-12-29T17:24:58.278Z,8.40
2022-12-29T17:27:34.543Z,8.12
2022-12-29T17:30:10.638Z,8.12
2022-12-29T17:32:38.416Z,8.28
2022-12-29T17:35:06.326Z,8.19
2022-12-29T17:37:37.974Z,8.12
2022-12-29T17:40:07.706Z,8.01
2022-12-29T17:42:42.576Z,7.93
2022-12-29T17:45:31.173Z,7.97
2022-12-29T17:48:01.938Z,7.77
2022-12-29T17:50:31.612Z,7.81
2022-12-29T17:53:05.511Z,7.81
2022-12-29T17:55:38.012Z,7.72
2022-12-29T17:58:33.216Z,7.68
2022-12-29T18:01:03.409Z,7.73
2022-12-29T18:03:36.878Z,7.68
2022-12-29T18:06:08.359Z,7.74
2022-12-29T18:08:37.052Z,7.72
2022-12-29T18:11:06.895Z,7.71
2022-12-29T18:13:43.979Z,7.63
2022-12-29T18:16:15.083Z,7.69
2022-12-29T18:18:42.555Z,7.63
2022-12-29T18:21:21.091Z,7.67
2022-12-29T18:23:48.869Z,7.64
2022-12-29T18:26:28.103Z,7.64
2022-12-29T18:28:57.695Z,7.63
2022-12-29T18:31:27.888Z,7.63
2022-12-29T18:33:57.463Z,7.65
2022-12-29T18:36:25.530Z,7.45
2022-12-29T18:38:54.797Z,7.40
2022-12-29T18:41:25.738Z,7.67
2022-12-29T18:43:53.199Z,7.65
2022-12-29T18:46:23.508Z,7.68
2022-12-29T18:48:52.114Z,7.60
2022-12-29T18:51:23.108Z,7.70
2022-12-29T18:53:52.434Z,7.66
2022-12-29T18:56:22.667Z,7.95
2022-12-29T18:58:51.677Z,8.10
2022-12-29T19:01:22.610Z,8.28
2022-12-29T19:03:50.265Z,8.17
2022-12-29T19:06:17.920Z,8.01
2022-12-29T19:08:45.169Z,8.07
2022-12-29T19:11:12.895Z,7.78
2022-12-29T19:13:40.613Z,7.69
2022-12-29T19:16:17.446Z,7.70
2022-12-29T19:18:48.699Z,7.69
2022-12-29T19:21:16.591Z,7.91
2022-12-29T19:23:44.648Z,7.96
2022-12-29T19:26:34.736Z,7.86
2022-12-29T19:29:03.008Z,7.76
2022-12-29T19:31:30.825Z,7.67
2022-12-29T19:33:58.139Z,7.56
2022-12-29T19:36:25.722Z,7.60
2022-12-29T19:38:54.228Z,7.41
2022-12-29T19:41:22.021Z,7.42
2022-12-29T19:43:50.360Z,7.30
2022-12-29T19:46:19.441Z,7.33
2022-12-29T19:48:46.911Z,7.38
2022-12-29T19:51:17.415Z,7.39
2022-12-29T19:53:47.810Z,7.49
2022-12-29T19:56:15.444Z,7.39
2022-12-29T19:58:47.171Z,7.44
2022-12-29T20:01:21.074Z,7.43
2022-12-29T20:03:49.396Z,7.41
2022-12-29T20:06:17.202Z,7.45
2022-12-29T20:08:44.488Z,7.51
2022-12-29T20:11:15.143Z,7.54
2022-12-29T20:13:43.398Z,7.61
2022-12-29T20:16:19.427Z,7.44
2022-12-29T20:18:47.976Z,7.47
2022-12-29T20:21:21.462Z,7.36
2022-12-29T20:23:49.791Z,7.34
2022-12-29T20:26:23.280Z,7.37
2022-12-29T20:28:51.687Z,7.33
2022-12-29T20:31:26.840Z,7.34
2022-12-29T20:33:54.238Z,7.36
2022-12-29T20:36:27.597Z,7.34
2022-12-29T20:38:58.072Z,7.18
2022-12-29T20:41:26.232Z,7.36
2022-12-29T20:43:54.458Z,7.32
2022-12-29T20:46:26.419Z,7.35
2022-12-29T20:48:58.918Z,7.37
2022-12-29T20:51:27.291Z,7.38
2022-12-29T20:53:54.861Z,7.32
2022-12-29T20:56:26.494Z,7.41
2022-12-29T21:01:43.218Z,7.40
2022-12-29T21:04:10.670Z,7.44
2022-12-29T21:06:38.415Z,7.32
2022-12-29T21:09:06.585Z,7.31
2022-12-29T21:11:34.303Z,7.36
2022-12-29T21:14:01.697Z,7.43
2022-12-29T21:16:29.843Z,7.38
2022-12-29T21:18:57.663Z,7.40
2022-12-29T21:21:26.087Z,7.44
2022-12-29T21:23:54.992Z,7.43
2022-12-29T21:26:24.049Z,7.52
2022-12-29T21:28:52.027Z,7.52
2022-12-29T21:31:27.921Z,7.50
2022-12-29T21:33:56.490Z,7.51
2022-12-29T21:36:24.277Z,7.57
2022-12-29T21:38:51.779Z,7.67
2022-12-29T21:41:20.487Z,7.71
2022-12-29T21:44:08.036Z,7.61
2022-12-29T21:46:38.124Z,7.61
2022-12-29T21:49:06.547Z,7.57
2022-12-29T21:51:54.283Z,7.56
2022-12-29T21:54:44.060Z,7.55
2022-12-29T21:57:17.940Z,7.50
2022-12-29T22:00:07.121Z,7.52
2022-12-29T22:02:55.386Z,7.58
2022-12-29T22:05:41.400Z,7.67
2022-12-29T22:08:27.489Z,7.78
2022-12-29T22:11:13.404Z,7.77
2022-12-29T22:13:41.035Z,7.78
2022-12-29T22:16:11.608Z,7.79
2022-12-29T22:18:39.504Z,7.85
2022-12-29T22:21:08.808Z,7.83
2022-12-29T22:23:40.271Z,7.81
2022-12-29T22:26:10.152Z,7.88
2022-12-29T22:28:39.946Z,7.96
2022-12-29T22:31:21.575Z,7.97
2022-12-29T22:33:49.115Z,7.91
2022-12-29T22:36:16.366Z,7.96
2022-12-29T22:38:43.931Z,8.00
2022-12-29T22:41:11.264Z,7.96
2022-12-29T22:43:38.841Z,7.93
2022-12-29T22:46:09.390Z,7.95
2022-12-29T22:48:37.093Z,7.88
2022-12-29T22:51:04.699Z,7.77
2022-12-29T22:53:33.239Z,7.64
2022-12-29T22:56:13.914Z,7.59
2022-12-29T22:58:42.796Z,7.48
2022-12-29T23:01:11.788Z,7.42
2022-12-29T23:03:40.044Z,7.36
2022-12-29T23:06:09.231Z,7.53
2022-12-29T23:08:38.538Z,7.56
2022-12-29T23:11:08.851Z,7.50
2022-12-29T23:13:36.554Z,7.49
2022-12-29T23:16:04.301Z,7.36
2022-12-29T23:18:31.979Z,7.48
2022-12-29T23:20:59.358Z,7.43
2022-12-29T23:23:49.273Z,7.41
2022-12-29T23:26:21.689Z,7.42
2022-12-29T23:28:53.409Z,7.36
2022-12-29T23:31:25.354Z,7.33
2022-12-29T23:33:55.489Z,7.21
2022-12-29T23:36:23.594Z,6.99
2022-12-29T23:38:51.149Z,7.00
2022-12-29T23:41:18.608Z,6.95
2022-12-29T23:43:46.396Z,6.92
2022-12-29T23:46:19.896Z,6.94
2022-12-29T23:48:47.572Z,7.09
2022-12-29T23:51:14.953Z,7.09
2022-12-29T23:53:43.504Z,6.95
2022-12-29T23:56:19.560Z,7.01
2022-12-29T23:58:47.625Z,6.90
